Time;durP1;ratioP1;P1;durP2;ratioP2;P2;SDS_P1;SDS_P2;PMS_P1;PMS_P2;Temp;Humidity;BMP_temperature;BMP_pressure;BME280_temperature;BME280_humidity;BME280_pressure;Samples;Min_cycle;Max_cycle;Signal;HPM_P1;HPM_P2
2022/08/09 00:00:44;;;;;;;1.70;1.60;;;;;;;29.99;34.45;96840.72;6277921;22;20061;-32
2022/08/09 00:16:37;;;;;;;1.50;1.40;;;;;;;29.98;34.35;96839.22;6277850;22;20014;-32
2022/08/09 00:32:28;;;;;;;1.77;1.67;;;;;;;29.97;34.48;96830.09;6277370;22;20034;-32
2022/08/09 00:45:37;;;;;;;1.83;1.60;;;;;;;29.80;34.59;96812.19;6277561;22;20027;-33
2022/08/09 01:01:36;;;;;;;1.75;1.65;;;;;;;29.98;34.16;96811.25;6277175;22;20018;-32
2022/08/09 01:04:24;;;;;;;1.67;1.58;;;;;;;29.97;34.31;96798.56;6277468;22;20003;-32
2022/08/09 01:17:01;;;;;;;1.38;1.27;;;;;;;29.93;34.40;96807.28;6276950;22;20011;-32
2022/08/09 01:32:56;;;;;;;2.45;1.88;;;;;;;29.95;33.93;96801.13;6276871;22;20038;-33
2022/08/09 01:45:45;;;;;;;1.70;1.60;;;;;;;30.05;33.74;96801.41;6277823;22;20011;-32
2022/08/09 02:01:40;;;;;;;2.03;1.83;;;;;;;29.98;33.99;96811.25;6215792;23;20020;-33
2022/08/09 02:31:26;;;;;;;1.95;1.80;;;;;;;29.85;33.76;96798.09;6215650;23;20244;-32
2022/08/09 03:00:49;;;;;;;3.22;2.33;;;;;;;29.86;33.98;96810.78;6275808;22;20011;-32
2022/08/09 03:16:41;;;;;;;3.28;2.20;;;;;;;29.85;34.47;96798.09;6276629;22;20033;-32
2022/08/09 03:46:00;;;;;;;2.67;2.47;;;;;;;29.87;34.38;96789.16;6276959;22;20345;-32
2022/08/09 03:48:28;;;;;;;2.80;2.60;;;;;;;29.86;34.55;96793.25;6278363;22;19999;-32
2022/08/09 04:00:59;;;;;;;3.05;2.85;;;;;;;29.87;34.66;96800.34;6278183;22;20051;-32
2022/08/09 04:16:50;;;;;;;2.88;2.67;;;;;;;29.84;34.80;96812.59;6277560;22;20010;-32
2022/08/09 04:46:10;;;;;;;3.65;2.80;;;;;;;29.78;35.38;96815.56;6276432;22;20062;-32
2022/08/09 05:02:03;;;;;;;3.40;3.10;;;;;;;29.81;35.19;96824.88;6274525;22;20088;-32
2022/08/09 05:17:56;;;;;;;2.90;2.70;;;;;;;29.81;35.58;96836.06;6274580;22;20018;-32
2022/08/09 05:30:55;;;;;;;3.13;2.92;;;;;;;29.78;35.44;96835.13;6274541;22;20022;-32
2022/08/09 05:46:48;;;;;;;3.17;2.88;;;;;;;29.67;35.91;96845.84;6273092;22;20092;-32
2022/08/09 06:17:36;;;;;;;3.25;2.97;;;;;;;29.61;36.66;96857.88;6290147;22;20469;-32
2022/08/09 06:30:57;;;;;;;3.45;3.15;;;;;;;29.59;36.81;96865.31;6304747;22;20402;-32
2022/08/09 06:46:50;;;;;;;3.67;3.10;;;;;;;29.20;38.96;96878.09;6304909;22;20464;-32
2022/08/09 07:02:56;;;;;;;3.50;3.20;;;;;;;29.47;38.29;96870.41;6304909;22;20138;-31
2022/08/09 07:16:00;;;;;;;3.78;3.15;;;;;;;29.44;38.38;96877.06;6306979;22;20395;-32
2022/08/09 07:32:42;;;;;;;4.05;3.05;;;;;;;29.40;38.31;96862.72;6306535;22;20491;-31
2022/08/09 07:46:00;;;;;;;3.30;2.97;;;;;;;29.42;38.27;96895.69;6304779;22;20094;-31
2022/08/09 08:01:54;;;;;;;4.22;3.60;;;;;;;29.35;38.56;96899.88;6307863;22;20399;-31
2022/08/09 08:31:13;;;;;;;4.03;3.47;;;;;;;29.34;38.31;96929.09;6308581;22;20018;-31
2022/08/09 08:47:07;;;;;;;4.07;3.05;;;;;;;29.31;38.60;96930.91;6308309;22;20014;-32
2022/08/09 09:03:00;;;;;;;4.07;3.67;;;;;;;29.31;38.58;96930.91;6308187;22;20014;-32
2022/08/09 09:16:07;;;;;;;3.75;3.45;;;;;;;29.27;38.62;96924.19;6308295;22;20073;-31
2022/08/09 09:32:00;;;;;;;3.90;3.50;;;;;;;29.19;38.95;96937.28;6307819;22;20044;-31
2022/08/09 10:01:20;;;;;;;3.47;3.17;;;;;;;29.28;39.16;96931.28;6306744;22;20181;-31
2022/08/09 10:17:12;;;;;;;4.05;3.75;;;;;;;29.30;39.31;96920.31;6307294;22;20460;-31
2022/08/09 10:33:04;;;;;;;4.20;3.80;;;;;;;29.12;40.13;96898.84;6307344;22;20018;-31
2022/08/09 10:46:22;;;;;;;5.85;4.10;;;;;;;28.99;41.06;96890.50;6310302;22;20086;-32
2022/08/09 11:16:35;;;;;;;10.30;4.88;;;;;;;29.28;40.69;96859.41;6309810;22;20053;-31
2022/08/09 11:32:43;;;;;;;5.85;4.18;;;;;;;29.42;40.34;96860.13;6184487;23;20016;-31
2022/08/09 12:02:02;;;;;;;5.72;4.05;;;;;;;29.41;39.68;96858.63;6308841;22;20023;-32
2022/08/09 12:17:55;;;;;;;4.18;3.75;;;;;;;29.43;39.82;96836.47;6292991;22;20081;-31
2022/08/09 12:20:25;;;;;;;6.03;4.35;;;;;;;29.29;39.89;96832.97;6295398;22;20007;-32
2022/08/09 12:46:24;;;;;;;13.32;5.85;;;;;;;29.01;41.93;96816.06;6292112;22;20030;-32
2022/08/09 13:02:17;;;;;;;6.82;5.30;;;;;;;28.76;42.76;96849.06;6290271;22;20297;-32
2022/08/09 13:04:58;;;;;;;6.95;5.07;;;;;;;28.69;42.76;96834.97;6295393;22;20007;-32
2022/08/09 13:17:29;;;;;;;8.32;5.05;;;;;;;28.42;44.69;96848.22;6292560;22;20030;-31
2022/08/09 13:19:58;;;;;;;5.60;5.00;;;;;;;28.31;44.45;96840.06;6293161;22;20007;-31
2022/08/09 13:32:52;;;;;;;13.80;5.90;;;;;;;28.61;43.37;96837.69;6291763;22;20033;-32
2022/08/09 13:48:51;;;;;;;6.72;4.45;;;;;;;28.55;42.38;96840.59;6293263;22;20068;-32
2022/08/09 14:01:35;;;;;;;8.52;7.63;;;;;;;28.58;42.08;96847.13;6290905;22;20018;-32
2022/08/09 14:04:01;;;;;;;6.22;5.55;;;;;;;28.82;41.78;96866.44;6292593;22;20007;-31
2022/08/09 14:16:32;;;;;;;7.43;5.63;;;;;;;28.68;41.54;96856.59;6291398;22;20819;-31
2022/08/09 14:32:25;;;;;;;5.13;4.03;;;;;;;28.77;40.54;96864.50;6304109;22;20018;-32
2022/08/09 14:48:17;;;;;;;4.20;3.85;;;;;;;28.63;40.16;96862.25;6305467;22;20014;-32
2022/08/09 15:01:25;;;;;;;5.03;3.33;;;;;;;28.42;39.41;96862.16;6305018;22;20014;-32
2022/08/09 15:17:18;;;;;;;4.75;3.50;;;;;;;28.63;39.87;96865.06;6304651;22;20050;-31
2022/08/09 15:33:10;;;;;;;4.80;4.30;;;;;;;28.82;39.92;96871.28;6307160;22;20046;-32
2022/08/09 15:35:36;;;;;;;6.60;5.72;;;;;;;28.90;39.52;96864.53;6307187;22;20007;-31
2022/08/09 16:01:34;;;;;;;5.13;4.10;;;;;;;28.90;39.55;96853.38;6306829;22;20026;-32
2022/08/09 16:17:27;;;;;;;4.93;4.20;;;;;;;29.04;39.36;96842.91;6305029;22;20088;-32
2022/08/09 16:33:22;;;;;;;4.43;3.78;;;;;;;28.88;39.70;96844.78;6306111;22;20531;-32
2022/08/09 16:46:30;;;;;;;4.03;3.63;;;;;;;28.93;39.46;96846.69;6305843;22;20348;-32
2022/08/09 17:02:22;;;;;;;4.32;3.75;;;;;;;29.13;39.16;96841.72;6305929;22;20017;-32
2022/08/09 17:31:43;;;;;;;4.00;3.15;;;;;;;29.19;39.09;96845.09;6305601;22;20022;-32
2022/08/09 17:47:55;;;;;;;3.47;3.08;;;;;;;29.78;37.58;96854.69;6305082;22;20102;-32
2022/08/09 18:01:34;;;;;;;5.93;4.57;;;;;;;30.24;36.63;96849.50;6304342;22;20014;-32
2022/08/09 18:18:17;;;;;;;6.68;5.95;;;;;;;30.08;37.00;96854.22;6303631;22;20394;-32
2022/08/09 18:31:36;;;;;;;5.80;5.20;;;;;;;30.15;37.15;96856.34;6304993;22;20081;-32
2022/08/09 19:17:26;;;;;;;3.88;3.58;;;;;;;29.98;37.18;96911.94;6305299;22;20065;-31
2022/08/09 19:46:46;;;;;;;4.25;3.50;;;;;;;29.99;37.75;96927.41;6306476;22;20093;-32
2022/08/09 20:02:39;;;;;;;3.30;3.00;;;;;;;29.99;37.76;96933.75;6306375;22;20056;-33
2022/08/09 20:18:31;;;;;;;3.35;3.05;;;;;;;29.93;37.94;96935.16;6304953;22;20041;-32
2022/08/09 20:31:42;;;;;;;3.60;3.30;;;;;;;29.81;38.52;96942.31;6306036;22;20014;-32
2022/08/09 20:47:36;;;;;;;3.30;3.00;;;;;;;29.83;38.31;96946.06;6305433;22;20435;-32
2022/08/09 21:03:29;;;;;;;3.90;3.25;;;;;;;29.83;38.19;96957.25;6304972;22;20033;-32
2022/08/09 21:32:31;;;;;;;3.40;2.90;;;;;;;29.70;38.22;96954.50;6304731;22;20018;-33
2022/08/09 22:01:51;;;;;;;3.92;3.17;;;;;;;29.64;38.09;96951.84;6304737;22;20448;-32
2022/08/09 22:04:17;;;;;;;4.20;3.22;;;;;;;29.68;37.80;96957.06;6305558;22;19999;-32
2022/08/09 22:16:48;;;;;;;4.22;3.08;;;;;;;29.73;37.81;96953.41;6306408;22;20133;-32
2022/08/09 22:32:40;;;;;;;4.22;3.40;;;;;;;29.49;38.34;96951.66;6307558;22;20038;-32
2022/08/09 22:48:32;;;;;;;3.88;3.28;;;;;;;29.63;37.77;96939.16;6307263;22;20052;-32
2022/08/09 23:01:51;;;;;;;5.90;3.63;;;;;;;29.54;38.14;96945.22;6307355;22;20013;-33
2022/08/09 23:31:52;;;;;;;3.70;3.15;;;;;;;29.50;37.80;96933.59;6307423;22;20502;-32
2022/08/09 23:47:45;;;;;;;3.35;3.05;;;;;;;29.36;37.69;96943.28;6307474;22;20033;-32
